sensor_id;sensor_type;location;lat;lon;timestamp;P1;durP1;ratioP1;P2;durP2;ratioP2
2213;SDS011;1113;42.018;23.986;2024-03-23T00:54:27;13.35;;;7.90;;
2213;SDS011;1113;42.018;23.986;2024-03-23T00:56:54;16.50;;;9.10;;
2213;SDS011;1113;42.018;23.986;2024-03-23T00:59:19;13.37;;;8.20;;
2213;SDS011;1113;42.018;23.986;2024-03-23T01:01:47;15.95;;;8.75;;
2213;SDS011;1113;42.018;23.986;2024-03-23T01:04:13;13.93;;;9.40;;
2213;SDS011;1113;42.018;23.986;2024-03-23T01:06:40;18.15;;;10.65;;
2213;SDS011;1113;42.018;23.986;2024-03-23T01:09:06;22.10;;;12.80;;
2213;SDS011;1113;42.018;23.986;2024-03-23T01:11:37;16.35;;;10.00;;
2213;SDS011;1113;42.018;23.986;2024-03-23T01:14:03;12.20;;;8.63;;
2213;SDS011;1113;42.018;23.986;2024-03-23T01:16:30;14.30;;;8.60;;
2213;SDS011;1113;42.018;23.986;2024-03-23T01:18:55;16.23;;;9.60;;
2213;SDS011;1113;42.018;23.986;2024-03-23T01:21:22;16.48;;;9.52;;
2213;SDS011;1113;42.018;23.986;2024-03-23T01:23:48;16.27;;;10.50;;
2213;SDS011;1113;42.018;23.986;2024-03-23T01:26:15;18.02;;;11.63;;
2213;SDS011;1113;42.018;23.986;2024-03-23T01:28:42;17.27;;;10.83;;
2213;SDS011;1113;42.018;23.986;2024-03-23T01:31:08;18.17;;;10.98;;
2213;SDS011;1113;42.018;23.986;2024-03-23T01:33:35;18.92;;;10.45;;
2213;SDS011;1113;42.018;23.986;2024-03-23T01:36:02;18.65;;;9.43;;
2213;SDS011;1113;42.018;23.986;2024-03-23T01:38:28;21.38;;;12.35;;
2213;SDS011;1113;42.018;23.986;2024-03-23T01:40:56;21.33;;;11.55;;
2213;SDS011;1113;42.018;23.986;2024-03-23T01:43:22;18.27;;;12.23;;
2213;SDS011;1113;42.018;23.986;2024-03-23T01:45:51;20.65;;;11.82;;
2213;SDS011;1113;42.018;23.986;2024-03-23T01:48:19;24.23;;;13.75;;
2213;SDS011;1113;42.018;23.986;2024-03-23T01:50:45;28.40;;;18.60;;
2213;SDS011;1113;42.018;23.986;2024-03-23T01:53:11;19.50;;;13.00;;
2213;SDS011;1113;42.018;23.986;2024-03-23T01:55:40;23.27;;;13.45;;
2213;SDS011;1113;42.018;23.986;2024-03-23T01:58:06;23.08;;;12.75;;
2213;SDS011;1113;42.018;23.986;2024-03-23T02:00:33;24.88;;;14.88;;
2213;SDS011;1113;42.018;23.986;2024-03-23T02:03:00;28.90;;;15.60;;
2213;SDS011;1113;42.018;23.986;2024-03-23T02:05:27;19.52;;;13.30;;
2213;SDS011;1113;42.018;23.986;2024-03-23T02:07:53;23.85;;;12.30;;
2213;SDS011;1113;42.018;23.986;2024-03-23T02:10:21;19.90;;;12.65;;
2213;SDS011;1113;42.018;23.986;2024-03-23T02:12:46;18.90;;;11.30;;
2213;SDS011;1113;42.018;23.986;2024-03-23T02:15:13;22.25;;;13.80;;
2213;SDS011;1113;42.018;23.986;2024-03-23T02:17:39;24.60;;;14.33;;
2213;SDS011;1113;42.018;23.986;2024-03-23T02:20:08;24.15;;;14.75;;
2213;SDS011;1113;42.018;23.986;2024-03-23T02:22:35;24.75;;;15.02;;
2213;SDS011;1113;42.018;23.986;2024-03-23T02:25:04;20.05;;;13.73;;
2213;SDS011;1113;42.018;23.986;2024-03-23T02:27:30;16.88;;;11.75;;
2213;SDS011;1113;42.018;23.986;2024-03-23T02:29:58;23.23;;;14.18;;
2213;SDS011;1113;42.018;23.986;2024-03-23T02:32:24;21.47;;;14.37;;
2213;SDS011;1113;42.018;23.986;2024-03-23T02:34:51;24.75;;;13.95;;
2213;SDS011;1113;42.018;23.986;2024-03-23T02:37:16;18.87;;;12.73;;
2213;SDS011;1113;42.018;23.986;2024-03-23T02:39:43;19.48;;;12.88;;
2213;SDS011;1113;42.018;23.986;2024-03-23T02:42:11;19.23;;;13.07;;
2213;SDS011;1113;42.018;23.986;2024-03-23T02:44:38;17.65;;;11.55;;
2213;SDS011;1113;42.018;23.986;2024-03-23T02:47:04;21.40;;;13.77;;
2213;SDS011;1113;42.018;23.986;2024-03-23T02:49:31;18.17;;;10.95;;
2213;SDS011;1113;42.018;23.986;2024-03-23T02:51:57;18.38;;;11.57;;
2213;SDS011;1113;42.018;23.986;2024-03-23T02:54:24;19.55;;;11.80;;
2213;SDS011;1113;42.018;23.986;2024-03-23T02:56:50;18.85;;;10.90;;
2213;SDS011;1113;42.018;23.986;2024-03-23T02:59:18;18.30;;;10.65;;
2213;SDS011;1113;42.018;23.986;2024-03-23T03:01:44;19.20;;;11.25;;
2213;SDS011;1113;42.018;23.986;2024-03-23T03:04:11;18.98;;;12.10;;
2213;SDS011;1113;42.018;23.986;2024-03-23T03:06:37;17.88;;;12.25;;
2213;SDS011;1113;42.018;23.986;2024-03-23T03:09:06;21.00;;;11.70;;
2213;SDS011;1113;42.018;23.986;2024-03-23T03:11:32;16.20;;;10.70;;
2213;SDS011;1113;42.018;23.986;2024-03-23T03:13:59;18.52;;;11.07;;
2213;SDS011;1113;42.018;23.986;2024-03-23T03:16:27;23.05;;;13.13;;
2213;SDS011;1113;42.018;23.986;2024-03-23T03:18:56;22.05;;;12.40;;
2213;SDS011;1113;42.018;23.986;2024-03-23T03:21:21;19.90;;;11.35;;
2213;SDS011;1113;42.018;23.986;2024-03-23T03:23:48;19.42;;;12.40;;
2213;SDS011;1113;42.018;23.986;2024-03-23T03:26:15;17.67;;;11.77;;
2213;SDS011;1113;42.018;23.986;2024-03-23T03:28:42;14.30;;;9.73;;
2213;SDS011;1113;42.018;23.986;2024-03-23T03:31:08;16.65;;;9.77;;
2213;SDS011;1113;42.018;23.986;2024-03-23T03:33:37;12.43;;;9.10;;
2213;SDS011;1113;42.018;23.986;2024-03-23T03:36:03;17.65;;;11.55;;
2213;SDS011;1113;42.018;23.986;2024-03-23T03:38:30;21.48;;;11.55;;
2213;SDS011;1113;42.018;23.986;2024-03-23T03:40:56;22.23;;;12.38;;
2213;SDS011;1113;42.018;23.986;2024-03-23T03:43:24;16.95;;;10.98;;
2213;SDS011;1113;42.018;23.986;2024-03-23T03:45:52;21.43;;;11.60;;
2213;SDS011;1113;42.018;23.986;2024-03-23T03:48:19;18.13;;;11.30;;
2213;SDS011;1113;42.018;23.986;2024-03-23T03:50:46;24.60;;;13.90;;
2213;SDS011;1113;42.018;23.986;2024-03-23T03:53:12;23.80;;;14.75;;
2213;SDS011;1113;42.018;23.986;2024-03-23T03:55:38;24.00;;;15.67;;
2213;SDS011;1113;42.018;23.986;2024-03-23T03:58:05;25.45;;;16.98;;
2213;SDS011;1113;42.018;23.986;2024-03-23T04:00:30;38.13;;;21.17;;
2213;SDS011;1113;42.018;23.986;2024-03-23T04:02:57;35.10;;;19.85;;
2213;SDS011;1113;42.018;23.986;2024-03-23T04:05:23;56.27;;;23.90;;
2213;SDS011;1113;42.018;23.986;2024-03-23T04:07:51;64.53;;;27.40;;
2213;SDS011;1113;42.018;23.986;2024-03-23T04:10:16;160.30;;;50.95;;
2213;SDS011;1113;42.018;23.986;2024-03-23T04:12:43;122.05;;;41.05;;
2213;SDS011;1113;42.018;23.986;2024-03-23T04:15:10;139.77;;;46.85;;
2213;SDS011;1113;42.018;23.986;2024-03-23T04:17:37;72.85;;;27.80;;
2213;SDS011;1113;42.018;23.986;2024-03-23T04:20:03;46.83;;;21.43;;
2213;SDS011;1113;42.018;23.986;2024-03-23T04:22:34;87.13;;;33.38;;
2213;SDS011;1113;42.018;23.986;2024-03-23T04:25:01;109.40;;;38.80;;
2213;SDS011;1113;42.018;23.986;2024-03-23T04:27:31;126.97;;;47.05;;
2213;SDS011;1113;42.018;23.986;2024-03-23T04:29:57;116.43;;;39.00;;
2213;SDS011;1113;42.018;23.986;2024-03-23T04:32:27;85.72;;;33.90;;
2213;SDS011;1113;42.018;23.986;2024-03-23T04:34:56;76.20;;;33.80;;
2213;SDS011;1113;42.018;23.986;2024-03-23T04:37:31;45.08;;;22.08;;
2213;SDS011;1113;42.018;23.986;2024-03-23T04:40:01;34.25;;;16.92;;
2213;SDS011;1113;42.018;23.986;2024-03-23T04:42:28;30.23;;;15.90;;
2213;SDS011;1113;42.018;23.986;2024-03-23T04:44:55;29.52;;;16.00;;
2213;SDS011;1113;42.018;23.986;2024-03-23T04:47:22;33.63;;;17.88;;
2213;SDS011;1113;42.018;23.986;2024-03-23T04:49:49;36.65;;;20.67;;
2213;SDS011;1113;42.018;23.986;2024-03-23T04:52:15;30.40;;;16.10;;
2213;SDS011;1113;42.018;23.986;2024-03-23T04:54:42;29.75;;;16.95;;
2213;SDS011;1113;42.018;23.986;2024-03-23T04:57:10;36.15;;;21.25;;
2213;SDS011;1113;42.018;23.986;2024-03-23T04:59:37;38.78;;;21.52;;
2213;SDS011;1113;42.018;23.986;2024-03-23T05:02:02;57.40;;;29.80;;
2213;SDS011;1113;42.018;23.986;2024-03-23T05:04:29;64.72;;;31.35;;
2213;SDS011;1113;42.018;23.986;2024-03-23T05:06:55;53.37;;;30.53;;
2213;SDS011;1113;42.018;23.986;2024-03-23T05:09:23;55.05;;;32.28;;
2213;SDS011;1113;42.018;23.986;2024-03-23T05:11:49;54.08;;;31.55;;
2213;SDS011;1113;42.018;23.986;2024-03-23T05:14:17;51.28;;;27.80;;
2213;SDS011;1113;42.018;23.986;2024-03-23T05:16:45;42.88;;;24.35;;
2213;SDS011;1113;42.018;23.986;2024-03-23T05:19:12;39.05;;;23.55;;
2213;SDS011;1113;42.018;23.986;2024-03-23T05:21:38;33.67;;;22.70;;
2213;SDS011;1113;42.018;23.986;2024-03-23T05:24:05;36.43;;;23.53;;
2213;SDS011;1113;42.018;23.986;2024-03-23T05:26:31;32.90;;;20.60;;
2213;SDS011;1113;42.018;23.986;2024-03-23T05:28:59;37.90;;;21.60;;
2213;SDS011;1113;42.018;23.986;2024-03-23T05:31:28;33.72;;;21.27;;
2213;SDS011;1113;42.018;23.986;2024-03-23T05:33:54;29.13;;;17.77;;
2213;SDS011;1113;42.018;23.986;2024-03-23T05:36:20;44.63;;;24.90;;
2213;SDS011;1113;42.018;23.986;2024-03-23T05:38:47;39.25;;;23.80;;
2213;SDS011;1113;42.018;23.986;2024-03-23T05:41:14;40.67;;;22.60;;
2213;SDS011;1113;42.018;23.986;2024-03-23T05:43:40;35.33;;;22.00;;
2213;SDS011;1113;42.018;23.986;2024-03-23T05:46:07;41.13;;;24.05;;
2213;SDS011;1113;42.018;23.986;2024-03-23T05:48:34;37.28;;;24.00;;
2213;SDS011;1113;42.018;23.986;2024-03-23T05:51:01;37.47;;;23.38;;
2213;SDS011;1113;42.018;23.986;2024-03-23T05:53:28;31.08;;;21.00;;
2213;SDS011;1113;42.018;23.986;2024-03-23T05:56:00;34.55;;;23.50;;
2213;SDS011;1113;42.018;23.986;2024-03-23T05:58:26;45.28;;;30.17;;
2213;SDS011;1113;42.018;23.986;2024-03-23T06:00:56;29.88;;;22.20;;
2213;SDS011;1113;42.018;23.986;2024-03-23T06:03:22;29.23;;;21.50;;
2213;SDS011;1113;42.018;23.986;2024-03-23T06:05:51;29.85;;;20.70;;
2213;SDS011;1113;42.018;23.986;2024-03-23T06:08:18;26.98;;;19.35;;
2213;SDS011;1113;42.018;23.986;2024-03-23T06:10:45;25.08;;;17.20;;
2213;SDS011;1113;42.018;23.986;2024-03-23T06:13:11;25.50;;;17.92;;
2213;SDS011;1113;42.018;23.986;2024-03-23T06:15:39;30.75;;;18.00;;
2213;SDS011;1113;42.018;23.986;2024-03-23T06:18:06;27.98;;;17.98;;
2213;SDS011;1113;42.018;23.986;2024-03-23T06:20:34;29.65;;;18.63;;
2213;SDS011;1113;42.018;23.986;2024-03-23T06:23:04;27.17;;;16.25;;
2213;SDS011;1113;42.018;23.986;2024-03-23T06:25:32;27.65;;;16.58;;
2213;SDS011;1113;42.018;23.986;2024-03-23T06:27:57;27.83;;;18.27;;
2213;SDS011;1113;42.018;23.986;2024-03-23T06:30:26;23.63;;;16.67;;
2213;SDS011;1113;42.018;23.986;2024-03-23T06:32:52;25.57;;;17.50;;
2213;SDS011;1113;42.018;23.986;2024-03-23T06:35:20;27.83;;;17.15;;
2213;SDS011;1113;42.018;23.986;2024-03-23T06:37:45;31.03;;;18.30;;
2213;SDS011;1113;42.018;23.986;2024-03-23T06:40:14;28.08;;;16.60;;
2213;SDS011;1113;42.018;23.986;2024-03-23T06:42:40;22.33;;;15.77;;
2213;SDS011;1113;42.018;23.986;2024-03-23T06:45:07;26.73;;;16.95;;
2213;SDS011;1113;42.018;23.986;2024-03-23T06:47:33;85.03;;;42.67;;
2213;SDS011;1113;42.018;23.986;2024-03-23T06:50:01;197.93;;;84.70;;
2213;SDS011;1113;42.018;23.986;2024-03-23T06:52:27;161.45;;;76.30;;
2213;SDS011;1113;42.018;23.986;2024-03-23T06:54:54;52.53;;;34.47;;
2213;SDS011;1113;42.018;23.986;2024-03-23T06:57:21;26.80;;;19.53;;
2213;SDS011;1113;42.018;23.986;2024-03-23T06:59:48;32.13;;;19.52;;
2213;SDS011;1113;42.018;23.986;2024-03-23T07:02:14;26.67;;;19.30;;
2213;SDS011;1113;42.018;23.986;2024-03-23T07:04:41;30.63;;;19.52;;
2213;SDS011;1113;42.018;23.986;2024-03-23T07:07:07;24.97;;;17.80;;
2213;SDS011;1113;42.018;23.986;2024-03-23T07:09:34;24.13;;;18.15;;
2213;SDS011;1113;42.018;23.986;2024-03-23T07:12:00;26.50;;;19.90;;
2213;SDS011;1113;42.018;23.986;2024-03-23T07:14:29;26.25;;;17.50;;
2213;SDS011;1113;42.018;23.986;2024-03-23T07:16:55;24.23;;;19.23;;
2213;SDS011;1113;42.018;23.986;2024-03-23T07:19:22;23.40;;;16.38;;
2213;SDS011;1113;42.018;23.986;2024-03-23T07:21:51;23.92;;;16.20;;
2213;SDS011;1113;42.018;23.986;2024-03-23T07:24:19;25.25;;;17.25;;
2213;SDS011;1113;42.018;23.986;2024-03-23T07:26:44;24.33;;;16.80;;
2213;SDS011;1113;42.018;23.986;2024-03-23T07:29:11;17.20;;;12.60;;
2213;SDS011;1113;42.018;23.986;2024-03-23T07:31:38;22.33;;;14.90;;
2213;SDS011;1113;42.018;23.986;2024-03-23T07:34:05;22.60;;;13.95;;
2213;SDS011;1113;42.018;23.986;2024-03-23T07:36:31;15.30;;;9.97;;
2213;SDS011;1113;42.018;23.986;2024-03-23T07:38:58;14.40;;;10.63;;
2213;SDS011;1113;42.018;23.986;2024-03-23T07:41:23;11.37;;;7.73;;
2213;SDS011;1113;42.018;23.986;2024-03-23T07:43:50;11.27;;;7.72;;
2213;SDS011;1113;42.018;23.986;2024-03-23T07:46:16;13.10;;;9.40;;
2213;SDS011;1113;42.018;23.986;2024-03-23T07:48:45;14.82;;;9.63;;
2213;SDS011;1113;42.018;23.986;2024-03-23T07:51:16;17.40;;;9.57;;
2213;SDS011;1113;42.018;23.986;2024-03-23T07:53:43;11.73;;;7.97;;
2213;SDS011;1113;42.018;23.986;2024-03-23T07:56:09;10.30;;;7.93;;
2213;SDS011;1113;42.018;23.986;2024-03-23T07:58:37;14.07;;;8.80;;
2213;SDS011;1113;42.018;23.986;2024-03-23T08:01:03;10.40;;;7.63;;
2213;SDS011;1113;42.018;23.986;2024-03-23T08:03:30;10.83;;;6.90;;
2213;SDS011;1113;42.018;23.986;2024-03-23T08:06:07;10.10;;;6.90;;
2213;SDS011;1113;42.018;23.986;2024-03-23T08:08:35;9.47;;;5.40;;
2213;SDS011;1113;42.018;23.986;2024-03-23T08:11:01;8.20;;;5.60;;
2213;SDS011;1113;42.018;23.986;2024-03-23T08:13:29;11.93;;;6.67;;
2213;SDS011;1113;42.018;23.986;2024-03-23T08:15:56;8.97;;;6.53;;
2213;SDS011;1113;42.018;23.986;2024-03-23T08:18:23;9.70;;;7.10;;
2213;SDS011;1113;42.018;23.986;2024-03-23T08:20:55;8.17;;;6.10;;
2213;SDS011;1113;42.018;23.986;2024-03-23T08:23:23;13.00;;;7.50;;
2213;SDS011;1113;42.018;23.986;2024-03-23T08:25:49;8.60;;;6.20;;
2213;SDS011;1113;42.018;23.986;2024-03-23T08:28:15;7.77;;;5.90;;
2213;SDS011;1113;42.018;23.986;2024-03-23T08:30:42;9.67;;;7.67;;
2213;SDS011;1113;42.018;23.986;2024-03-23T08:33:09;11.33;;;8.20;;
2213;SDS011;1113;42.018;23.986;2024-03-23T08:35:35;11.40;;;8.17;;
2213;SDS011;1113;42.018;23.986;2024-03-23T08:38:03;14.10;;;8.90;;
2213;SDS011;1113;42.018;23.986;2024-03-23T08:40:30;13.30;;;9.00;;
2213;SDS011;1113;42.018;23.986;2024-03-23T08:42:57;12.33;;;7.80;;
2213;SDS011;1113;42.018;23.986;2024-03-23T08:45:24;11.30;;;7.67;;
2213;SDS011;1113;42.018;23.986;2024-03-23T08:47:51;8.03;;;6.07;;
2213;SDS011;1113;42.018;23.986;2024-03-23T08:50:16;10.47;;;7.77;;
2213;SDS011;1113;42.018;23.986;2024-03-23T08:52:43;13.33;;;7.97;;
2213;SDS011;1113;42.018;23.986;2024-03-23T08:55:09;11.80;;;7.90;;
2213;SDS011;1113;42.018;23.986;2024-03-23T08:57:37;10.20;;;7.30;;
2213;SDS011;1113;42.018;23.986;2024-03-23T09:00:04;10.63;;;7.10;;
2213;SDS011;1113;42.018;23.986;2024-03-23T09:02:34;12.47;;;8.20;;
2213;SDS011;1113;42.018;23.986;2024-03-23T09:05:00;11.73;;;8.30;;
2213;SDS011;1113;42.018;23.986;2024-03-23T09:07:30;11.93;;;7.93;;
2213;SDS011;1113;42.018;23.986;2024-03-23T09:09:55;11.73;;;8.40;;
2213;SDS011;1113;42.018;23.986;2024-03-23T09:12:23;13.50;;;7.30;;
2213;SDS011;1113;42.018;23.986;2024-03-23T09:14:50;11.40;;;8.20;;
2213;SDS011;1113;42.018;23.986;2024-03-23T09:17:18;12.60;;;7.67;;
2213;SDS011;1113;42.018;23.986;2024-03-23T09:19:44;10.70;;;7.60;;
2213;SDS011;1113;42.018;23.986;2024-03-23T09:22:11;7.43;;;5.67;;
2213;SDS011;1113;42.018;23.986;2024-03-23T09:24:37;10.13;;;4.87;;
2213;SDS011;1113;42.018;23.986;2024-03-23T09:27:05;5.83;;;4.60;;
2213;SDS011;1113;42.018;23.986;2024-03-23T09:29:31;6.30;;;4.03;;
2213;SDS011;1113;42.018;23.986;2024-03-23T09:31:59;4.73;;;3.27;;
2213;SDS011;1113;42.018;23.986;2024-03-23T09:34:28;4.63;;;2.80;;
2213;SDS011;1113;42.018;23.986;2024-03-23T09:36:55;5.60;;;3.93;;
2213;SDS011;1113;42.018;23.986;2024-03-23T09:39:23;6.50;;;3.93;;
2213;SDS011;1113;42.018;23.986;2024-03-23T09:41:50;7.70;;;4.03;;
2213;SDS011;1113;42.018;23.986;2024-03-23T09:44:15;6.90;;;4.47;;
2213;SDS011;1113;42.018;23.986;2024-03-23T09:46:42;6.47;;;4.27;;
2213;SDS011;1113;42.018;23.986;2024-03-23T09:49:10;4.90;;;4.00;;
2213;SDS011;1113;42.018;23.986;2024-03-23T09:51:37;7.10;;;4.00;;
2213;SDS011;1113;42.018;23.986;2024-03-23T09:54:03;7.80;;;4.10;;
2213;SDS011;1113;42.018;23.986;2024-03-23T09:56:30;7.17;;;4.00;;
2213;SDS011;1113;42.018;23.986;2024-03-23T09:59:05;4.80;;;3.67;;
2213;SDS011;1113;42.018;23.986;2024-03-23T10:01:32;6.00;;;4.40;;
2213;SDS011;1113;42.018;23.986;2024-03-23T10:03:58;5.17;;;3.47;;
2213;SDS011;1113;42.018;23.986;2024-03-23T10:06:27;5.80;;;3.60;;
2213;SDS011;1113;42.018;23.986;2024-03-23T10:08:53;5.40;;;3.67;;
2213;SDS011;1113;42.018;23.986;2024-03-23T10:11:20;4.47;;;3.00;;
2213;SDS011;1113;42.018;23.986;2024-03-23T10:13:46;6.43;;;3.70;;
2213;SDS011;1113;42.018;23.986;2024-03-23T10:16:20;5.27;;;3.37;;
2213;SDS011;1113;42.018;23.986;2024-03-23T10:18:47;5.93;;;3.63;;
2213;SDS011;1113;42.018;23.986;2024-03-23T10:21:14;4.60;;;2.53;;
2213;SDS011;1113;42.018;23.986;2024-03-23T10:23:42;4.90;;;3.10;;
2213;SDS011;1113;42.018;23.986;2024-03-23T10:26:19;4.97;;;3.13;;
2213;SDS011;1113;42.018;23.986;2024-03-23T10:28:53;5.27;;;3.30;;
2213;SDS011;1113;42.018;23.986;2024-03-23T10:31:22;3.77;;;2.83;;
2213;SDS011;1113;42.018;23.986;2024-03-23T10:33:48;3.67;;;2.17;;
2213;SDS011;1113;42.018;23.986;2024-03-23T10:36:15;3.90;;;2.70;;
2213;SDS011;1113;42.018;23.986;2024-03-23T10:38:43;3.27;;;2.33;;
2213;SDS011;1113;42.018;23.986;2024-03-23T10:41:11;4.57;;;2.40;;
2213;SDS011;1113;42.018;23.986;2024-03-23T10:43:37;3.53;;;1.83;;
2213;SDS011;1113;42.018;23.986;2024-03-23T10:46:04;3.67;;;1.87;;
2213;SDS011;1113;42.018;23.986;2024-03-23T10:48:30;3.47;;;1.90;;
2213;SDS011;1113;42.018;23.986;2024-03-23T10:50:58;3.13;;;2.27;;
2213;SDS011;1113;42.018;23.986;2024-03-23T10:53:27;6.00;;;2.83;;
2213;SDS011;1113;42.018;23.986;2024-03-23T10:55:55;4.67;;;2.80;;
2213;SDS011;1113;42.018;23.986;2024-03-23T10:58:23;4.93;;;3.00;;
2213;SDS011;1113;42.018;23.986;2024-03-23T11:00:51;3.23;;;2.20;;
2213;SDS011;1113;42.018;23.986;2024-03-23T11:03:31;5.90;;;3.23;;
2213;SDS011;1113;42.018;23.986;2024-03-23T11:05:59;5.33;;;3.30;;
2213;SDS011;1113;42.018;23.986;2024-03-23T11:08:31;4.17;;;2.60;;
2213;SDS011;1113;42.018;23.986;2024-03-23T11:13:44;3.77;;;2.50;;
2213;SDS011;1113;42.018;23.986;2024-03-23T11:16:14;3.70;;;2.50;;
2213;SDS011;1113;42.018;23.986;2024-03-23T11:18:43;5.00;;;2.63;;
2213;SDS011;1113;42.018;23.986;2024-03-23T11:21:11;5.00;;;2.70;;
2213;SDS011;1113;42.018;23.986;2024-03-23T11:26:39;7.33;;;3.50;;
2213;SDS011;1113;42.018;23.986;2024-03-23T11:29:10;3.90;;;2.17;;
2213;SDS011;1113;42.018;23.986;2024-03-23T11:31:37;3.07;;;2.17;;
2213;SDS011;1113;42.018;23.986;2024-03-23T11:34:03;4.60;;;2.30;;
2213;SDS011;1113;42.018;23.986;2024-03-23T11:36:31;5.13;;;2.50;;
2213;SDS011;1113;42.018;23.986;2024-03-23T11:38:56;4.43;;;2.90;;
2213;SDS011;1113;42.018;23.986;2024-03-23T11:41:26;5.17;;;2.80;;
2213;SDS011;1113;42.018;23.986;2024-03-23T11:43:52;4.03;;;2.60;;
2213;SDS011;1113;42.018;23.986;2024-03-23T11:46:23;4.10;;;2.80;;
2213;SDS011;1113;42.018;23.986;2024-03-23T11:48:49;3.90;;;2.50;;
2213;SDS011;1113;42.018;23.986;2024-03-23T11:51:18;4.80;;;2.90;;
2213;SDS011;1113;42.018;23.986;2024-03-23T11:53:44;6.77;;;3.13;;
2213;SDS011;1113;42.018;23.986;2024-03-23T11:56:11;5.47;;;3.10;;
2213;SDS011;1113;42.018;23.986;2024-03-23T11:58:36;3.40;;;2.60;;
2213;SDS011;1113;42.018;23.986;2024-03-23T12:01:04;3.17;;;2.13;;
2213;SDS011;1113;42.018;23.986;2024-03-23T12:03:32;3.80;;;2.87;;
2213;SDS011;1113;42.018;23.986;2024-03-23T12:06:00;4.93;;;3.30;;
2213;SDS011;1113;42.018;23.986;2024-03-23T12:08:29;3.43;;;2.50;;
2213;SDS011;1113;42.018;23.986;2024-03-23T12:11:04;7.97;;;4.40;;
2213;SDS011;1113;42.018;23.986;2024-03-23T12:13:30;5.57;;;3.20;;
2213;SDS011;1113;42.018;23.986;2024-03-23T12:16:09;4.60;;;3.43;;
2213;SDS011;1113;42.018;23.986;2024-03-23T12:18:36;3.87;;;2.77;;
2213;SDS011;1113;42.018;23.986;2024-03-23T12:21:04;4.90;;;2.90;;
2213;SDS011;1113;42.018;23.986;2024-03-23T12:23:29;6.60;;;4.10;;
2213;SDS011;1113;42.018;23.986;2024-03-23T12:25:57;4.33;;;2.80;;
2213;SDS011;1113;42.018;23.986;2024-03-23T12:28:23;3.70;;;3.00;;
2213;SDS011;1113;42.018;23.986;2024-03-23T12:30:50;4.50;;;2.97;;
2213;SDS011;1113;42.018;23.986;2024-03-23T12:33:17;4.77;;;3.00;;
2213;SDS011;1113;42.018;23.986;2024-03-23T12:35:46;4.63;;;2.40;;
2213;SDS011;1113;42.018;23.986;2024-03-23T12:38:11;4.67;;;2.87;;
2213;SDS011;1113;42.018;23.986;2024-03-23T12:40:38;4.83;;;2.63;;
2213;SDS011;1113;42.018;23.986;2024-03-23T12:43:04;4.57;;;2.40;;
2213;SDS011;1113;42.018;23.986;2024-03-23T12:45:34;7.50;;;3.00;;
2213;SDS011;1113;42.018;23.986;2024-03-23T12:48:00;4.60;;;3.60;;
2213;SDS011;1113;42.018;23.986;2024-03-23T12:50:27;4.80;;;2.93;;
2213;SDS011;1113;42.018;23.986;2024-03-23T12:52:55;4.70;;;2.50;;
2213;SDS011;1113;42.018;23.986;2024-03-23T12:55:22;4.37;;;2.40;;
2213;SDS011;1113;42.018;23.986;2024-03-23T12:57:47;4.47;;;2.83;;
2213;SDS011;1113;42.018;23.986;2024-03-23T13:00:15;4.10;;;2.40;;
2213;SDS011;1113;42.018;23.986;2024-03-23T13:02:42;4.60;;;2.70;;
2213;SDS011;1113;42.018;23.986;2024-03-23T13:05:09;4.53;;;3.10;;
2213;SDS011;1113;42.018;23.986;2024-03-23T13:07:35;4.77;;;3.50;;
2213;SDS011;1113;42.018;23.986;2024-03-23T13:10:05;5.93;;;4.13;;
2213;SDS011;1113;42.018;23.986;2024-03-23T13:12:31;4.70;;;3.60;;
2213;SDS011;1113;42.018;23.986;2024-03-23T13:14:58;4.30;;;2.93;;
2213;SDS011;1113;42.018;23.986;2024-03-23T13:17:27;5.20;;;3.00;;
2213;SDS011;1113;42.018;23.986;2024-03-23T13:19:54;3.80;;;2.60;;
2213;SDS011;1113;42.018;23.986;2024-03-23T13:22:21;7.60;;;3.70;;
2213;SDS011;1113;42.018;23.986;2024-03-23T13:24:48;3.00;;;2.40;;
2213;SDS011;1113;42.018;23.986;2024-03-23T13:27:16;6.30;;;3.40;;
2213;SDS011;1113;42.018;23.986;2024-03-23T13:29:43;4.33;;;3.33;;
2213;SDS011;1113;42.018;23.986;2024-03-23T13:32:11;4.67;;;3.30;;
2213;SDS011;1113;42.018;23.986;2024-03-23T13:34:38;4.20;;;2.63;;
2213;SDS011;1113;42.018;23.986;2024-03-23T13:37:05;4.00;;;2.80;;
2213;SDS011;1113;42.018;23.986;2024-03-23T13:39:32;4.27;;;2.80;;
2213;SDS011;1113;42.018;23.986;2024-03-23T13:41:58;3.73;;;2.50;;
2213;SDS011;1113;42.018;23.986;2024-03-23T13:44:27;4.50;;;2.70;;
2213;SDS011;1113;42.018;23.986;2024-03-23T13:46:52;4.20;;;2.47;;
2213;SDS011;1113;42.018;23.986;2024-03-23T13:49:26;3.80;;;2.80;;
2213;SDS011;1113;42.018;23.986;2024-03-23T13:51:53;3.27;;;2.37;;
2213;SDS011;1113;42.018;23.986;2024-03-23T13:54:21;6.40;;;3.13;;
2213;SDS011;1113;42.018;23.986;2024-03-23T13:56:47;4.40;;;3.30;;
2213;SDS011;1113;42.018;23.986;2024-03-23T13:59:14;6.83;;;3.10;;
2213;SDS011;1113;42.018;23.986;2024-03-23T14:01:42;4.40;;;3.30;;
2213;SDS011;1113;42.018;23.986;2024-03-23T14:04:09;7.67;;;4.97;;
2213;SDS011;1113;42.018;23.986;2024-03-23T14:06:38;7.70;;;4.00;;
2213;SDS011;1113;42.018;23.986;2024-03-23T14:09:04;4.50;;;3.20;;
2213;SDS011;1113;42.018;23.986;2024-03-23T14:11:30;7.37;;;5.47;;
2213;SDS011;1113;42.018;23.986;2024-03-23T14:13:57;6.70;;;4.80;;
2213;SDS011;1113;42.018;23.986;2024-03-23T14:16:23;5.40;;;3.50;;
2213;SDS011;1113;42.018;23.986;2024-03-23T14:18:51;6.20;;;3.53;;
2213;SDS011;1113;42.018;23.986;2024-03-23T14:21:17;5.23;;;3.20;;
2213;SDS011;1113;42.018;23.986;2024-03-23T14:23:44;5.53;;;3.77;;
2213;SDS011;1113;42.018;23.986;2024-03-23T14:26:10;6.57;;;4.00;;
2213;SDS011;1113;42.018;23.986;2024-03-23T14:28:36;5.80;;;3.90;;
2213;SDS011;1113;42.018;23.986;2024-03-23T14:31:02;12.50;;;7.03;;
2213;SDS011;1113;42.018;23.986;2024-03-23T14:33:35;8.17;;;5.47;;
2213;SDS011;1113;42.018;23.986;2024-03-23T14:36:03;7.97;;;5.20;;
2213;SDS011;1113;42.018;23.986;2024-03-23T14:38:30;9.20;;;5.83;;
2213;SDS011;1113;42.018;23.986;2024-03-23T14:40:57;7.60;;;4.50;;
2213;SDS011;1113;42.018;23.986;2024-03-23T14:43:24;7.70;;;4.53;;
2213;SDS011;1113;42.018;23.986;2024-03-23T14:48:31;5.47;;;3.93;;
2213;SDS011;1113;42.018;23.986;2024-03-23T14:50:57;5.50;;;3.83;;
2213;SDS011;1113;42.018;23.986;2024-03-23T14:53:26;4.20;;;3.20;;
2213;SDS011;1113;42.018;23.986;2024-03-23T14:55:54;5.43;;;3.93;;
2213;SDS011;1113;42.018;23.986;2024-03-23T14:58:20;7.20;;;4.13;;
2213;SDS011;1113;42.018;23.986;2024-03-23T15:00:48;6.30;;;4.00;;
2213;SDS011;1113;42.018;23.986;2024-03-23T15:03:15;5.03;;;3.77;;
2213;SDS011;1113;42.018;23.986;2024-03-23T15:05:41;6.80;;;4.40;;
2213;SDS011;1113;42.018;23.986;2024-03-23T15:08:08;10.10;;;4.60;;
2213;SDS011;1113;42.018;23.986;2024-03-23T15:10:36;8.70;;;4.23;;
2213;SDS011;1113;42.018;23.986;2024-03-23T15:13:02;5.40;;;3.70;;
2213;SDS011;1113;42.018;23.986;2024-03-23T15:15:30;6.50;;;4.50;;
2213;SDS011;1113;42.018;23.986;2024-03-23T15:17:57;6.67;;;4.80;;
2213;SDS011;1113;42.018;23.986;2024-03-23T15:20:23;6.73;;;6.00;;
2213;SDS011;1113;42.018;23.986;2024-03-23T15:22:49;8.73;;;5.03;;
2213;SDS011;1113;42.018;23.986;2024-03-23T15:25:15;8.97;;;5.67;;
2213;SDS011;1113;42.018;23.986;2024-03-23T15:27:48;9.73;;;6.00;;
2213;SDS011;1113;42.018;23.986;2024-03-23T15:30:13;5.67;;;4.57;;
2213;SDS011;1113;42.018;23.986;2024-03-23T15:32:40;5.43;;;4.10;;
2213;SDS011;1113;42.018;23.986;2024-03-23T15:35:06;5.47;;;4.20;;
2213;SDS011;1113;42.018;23.986;2024-03-23T15:37:33;10.30;;;9.20;;
2213;SDS011;1113;42.018;23.986;2024-03-23T15:40:00;13.80;;;5.73;;
2213;SDS011;1113;42.018;23.986;2024-03-23T15:42:28;8.60;;;5.43;;
2213;SDS011;1113;42.018;23.986;2024-03-23T15:44:55;9.17;;;6.47;;
2213;SDS011;1113;42.018;23.986;2024-03-23T15:47:22;14.63;;;7.67;;
2213;SDS011;1113;42.018;23.986;2024-03-23T15:49:52;8.10;;;5.77;;